createdAt,value
2022-08-20T00:00:31.032Z,13.53
2022-08-20T00:03:02.615Z,13.30
2022-08-20T00:05:37.089Z,12.17
2022-08-20T00:08:05.977Z,12.43
2022-08-20T00:10:38.786Z,11.67
2022-08-20T00:13:14.019Z,11.90
2022-08-20T00:15:47.661Z,12.63
2022-08-20T00:18:16.640Z,12.07
2022-08-20T00:20:48.484Z,12.30
2022-08-20T00:23:17.087Z,11.40
2022-08-20T00:25:47.240Z,12.80
2022-08-20T00:28:16.355Z,11.60
2022-08-20T00:30:46.931Z,10.97
2022-08-20T00:33:19.900Z,10.70
2022-08-20T00:35:51.839Z,11.83
2022-08-20T00:38:20.863Z,11.00
2022-08-20T00:40:54.866Z,11.13
2022-08-20T00:43:30.594Z,11.23
2022-08-20T00:46:00.430Z,15.10
2022-08-20T00:48:31.761Z,18.13
2022-08-20T00:51:07.630Z,14.77
2022-08-20T00:53:37.477Z,13.20
2022-08-20T00:56:10.816Z,11.30
2022-08-20T00:58:41.241Z,11.10
2022-08-20T01:01:10.600Z,10.67
2022-08-20T01:03:39.847Z,10.67
2022-08-20T01:06:11.630Z,11.63
2022-08-20T01:08:42.635Z,11.97
2022-08-20T01:11:16.592Z,12.83
2022-08-20T01:13:48.571Z,13.07
2022-08-20T01:16:23.220Z,13.73
2022-08-20T01:18:52.984Z,14.90
2022-08-20T01:21:25.270Z,14.70
2022-08-20T01:24:01.338Z,14.00
2022-08-20T01:26:36.749Z,15.07
2022-08-20T01:29:08.677Z,14.00
2022-08-20T01:31:40.269Z,12.87
2022-08-20T01:34:10.661Z,14.50
2022-08-20T01:36:46.357Z,13.70
2022-08-20T01:39:18.815Z,15.33
2022-08-20T01:41:59.871Z,14.10
2022-08-20T01:44:29.669Z,18.57
2022-08-20T01:47:11.100Z,14.50
2022-08-20T01:49:44.816Z,13.90
2022-08-20T01:52:18.989Z,14.03
2022-08-20T01:54:47.810Z,12.93
2022-08-20T01:57:20.041Z,11.67
2022-08-20T01:59:51.332Z,12.03
2022-08-20T02:02:20.201Z,12.53
2022-08-20T02:04:49.011Z,13.20
2022-08-20T02:07:21.373Z,13.80
2022-08-20T02:09:51.161Z,12.80
2022-08-20T02:12:21.273Z,13.13
2022-08-20T02:14:52.246Z,13.23
2022-08-20T02:17:23.689Z,12.67
2022-08-20T02:19:56.530Z,12.47
2022-08-20T02:22:29.081Z,13.00
2022-08-20T02:24:58.238Z,12.20
2022-08-20T02:27:28.149Z,12.27
2022-08-20T02:29:58.751Z,12.20
2022-08-20T02:32:34.078Z,14.13
2022-08-20T02:35:03.919Z,14.00
2022-08-20T02:37:32.495Z,14.07
2022-08-20T02:40:01.469Z,12.60
2022-08-20T02:42:31.391Z,12.43
2022-08-20T02:44:59.909Z,12.10
2022-08-20T02:47:29.354Z,11.47
2022-08-20T02:49:59.720Z,12.00
2022-08-20T02:52:28.730Z,11.03
2022-08-20T02:54:57.292Z,11.60
2022-08-20T02:57:26.295Z,11.13
2022-08-20T02:59:56.439Z,10.67
2022-08-20T03:02:25.066Z,9.73
2022-08-20T03:04:53.497Z,10.00
2022-08-20T03:07:22.682Z,10.67
2022-08-20T03:09:51.390Z,10.37
2022-08-20T03:12:19.890Z,10.17
2022-08-20T03:14:48.391Z,9.07
2022-08-20T03:17:18.317Z,9.00
2022-08-20T03:19:46.791Z,8.70
2022-08-20T03:22:15.799Z,9.83
2022-08-20T03:24:44.491Z,9.50
2022-08-20T03:27:14.625Z,11.90
2022-08-20T03:29:43.156Z,10.87
2022-08-20T03:32:11.603Z,10.57
2022-08-20T03:34:41.453Z,16.83
2022-08-20T03:37:10.111Z,13.43
2022-08-20T03:39:38.714Z,12.43
2022-08-20T03:42:07.520Z,11.60
2022-08-20T03:44:37.392Z,11.07
2022-08-20T03:47:09.412Z,10.40
2022-08-20T03:49:38.043Z,10.90
2022-08-20T03:52:08.558Z,10.77
2022-08-20T03:54:37.033Z,9.80
2022-08-20T03:57:12.700Z,10.33
2022-08-20T03:59:41.596Z,9.93
2022-08-20T04:02:11.107Z,11.97
2022-08-20T04:04:40.289Z,13.63
2022-08-20T04:07:17.396Z,10.83
2022-08-20T04:09:45.982Z,9.87
2022-08-20T04:12:14.567Z,10.00
2022-08-20T04:14:43.340Z,10.20
2022-08-20T04:17:14.138Z,9.43
2022-08-20T04:19:44.314Z,9.00
2022-08-20T04:22:14.864Z,8.90
2022-08-20T04:24:44.429Z,8.50
2022-08-20T04:27:14.927Z,8.10
2022-08-20T04:29:44.643Z,8.70
2022-08-20T04:32:14.017Z,9.47
2022-08-20T04:34:45.533Z,9.63
2022-08-20T04:37:22.275Z,9.80
2022-08-20T04:40:05.527Z,11.80
2022-08-20T04:42:34.266Z,11.67
2022-08-20T04:45:02.770Z,12.00
2022-08-20T04:47:34.446Z,11.53
2022-08-20T04:50:03.463Z,13.13
2022-08-20T04:52:33.293Z,12.67
2022-08-20T04:55:02.111Z,13.43
2022-08-20T04:57:30.625Z,13.00
2022-08-20T04:59:59.632Z,14.77
2022-08-20T05:02:28.171Z,17.03
2022-08-20T05:04:56.674Z,15.13
2022-08-20T05:07:26.367Z,14.50
2022-08-20T05:09:56.360Z,13.93
2022-08-20T05:12:24.824Z,13.37
2022-08-20T05:14:54.334Z,12.07
2022-08-20T05:17:23.896Z,11.50
2022-08-20T05:19:54.017Z,11.33
2022-08-20T05:22:22.878Z,11.53
2022-08-20T05:24:51.763Z,16.13
2022-08-20T05:27:24.807Z,14.97
2022-08-20T05:29:53.822Z,12.50
2022-08-20T05:32:22.851Z,12.77
2022-08-20T05:34:51.331Z,19.33
2022-08-20T05:37:19.850Z,12.50
2022-08-20T05:39:48.427Z,11.70
2022-08-20T05:42:17.773Z,10.97
2022-08-20T05:44:47.593Z,11.37
2022-08-20T05:47:18.246Z,9.80
2022-08-20T05:49:47.426Z,10.40
2022-08-20T05:52:18.421Z,8.70
2022-08-20T05:54:46.932Z,8.90
2022-08-20T05:57:20.223Z,9.40
2022-08-20T05:59:50.051Z,11.60
2022-08-20T06:02:35.940Z,11.63
2022-08-20T06:05:04.643Z,10.00
2022-08-20T06:07:33.251Z,10.20
2022-08-20T06:10:02.227Z,9.53
2022-08-20T06:12:30.671Z,9.27
2022-08-20T06:15:00.508Z,10.17
2022-08-20T06:17:34.762Z,9.47
2022-08-20T06:20:09.979Z,10.30
2022-08-20T06:22:39.278Z,12.17
2022-08-20T06:25:09.609Z,12.73
2022-08-20T06:27:40.353Z,14.07
2022-08-20T06:30:12.325Z,15.47
2022-08-20T06:32:41.182Z,16.40
2022-08-20T06:35:11.751Z,15.50
2022-08-20T06:37:41.502Z,15.57
2022-08-20T06:40:13.309Z,14.07
2022-08-20T06:42:48.124Z,14.53
2022-08-20T06:45:24.401Z,12.40
2022-08-20T06:47:53.522Z,11.40
2022-08-20T06:50:23.640Z,11.43
2022-08-20T06:52:53.397Z,11.07
2022-08-20T06:55:23.129Z,9.87
2022-08-20T06:57:59.441Z,9.50
2022-08-20T07:00:31.463Z,10.87
2022-08-20T07:03:01.189Z,9.40
2022-08-20T07:05:30.592Z,12.23
2022-08-20T07:07:59.440Z,10.60
2022-08-20T07:10:29.981Z,10.03
2022-08-20T07:12:59.319Z,11.17
2022-08-20T07:15:29.212Z,11.33
2022-08-20T07:18:01.535Z,10.30
2022-08-20T07:20:31.787Z,8.90
2022-08-20T07:23:00.659Z,9.37
2022-08-20T07:25:30.199Z,10.53
2022-08-20T07:28:02.766Z,9.80
2022-08-20T07:30:56.238Z,11.13
2022-08-20T07:33:28.384Z,11.43
2022-08-20T07:35:57.901Z,10.73
2022-08-20T07:38:29.220Z,10.40
2022-08-20T07:40:59.938Z,10.93
2022-08-20T07:43:29.503Z,10.47
2022-08-20T07:46:03.011Z,9.20
2022-08-20T07:48:32.759Z,9.93
2022-08-20T07:51:03.490Z,12.23
2022-08-20T07:53:35.710Z,8.40
2022-08-20T07:56:07.102Z,8.05
2022-08-20T07:58:38.418Z,9.77
2022-08-20T08:01:08.423Z,9.90
2022-08-20T08:03:48.948Z,11.00
2022-08-20T08:06:29.755Z,12.07
2022-08-20T08:09:03.177Z,11.73
2022-08-20T08:11:34.692Z,12.17
2022-08-20T08:14:04.246Z,11.57
2022-08-20T08:16:35.395Z,13.00
2022-08-20T08:19:07.193Z,12.87
2022-08-20T08:21:35.990Z,11.97
2022-08-20T08:24:04.783Z,13.37
2022-08-20T08:26:33.360Z,14.77
2022-08-20T08:29:02.554Z,12.33
2022-08-20T08:31:31.000Z,12.07
2022-08-20T08:34:00.896Z,12.80
2022-08-20T08:36:29.392Z,12.07
2022-08-20T08:38:57.883Z,12.90
2022-08-20T08:41:32.432Z,12.40
2022-08-20T08:44:08.213Z,14.33
2022-08-20T08:46:41.802Z,15.30
2022-08-20T08:49:15.590Z,15.47
2022-08-20T08:51:49.220Z,18.33
2022-08-20T08:54:21.380Z,17.87
2022-08-20T08:56:50.870Z,16.17
2022-08-20T08:59:20.990Z,15.73
2022-08-20T09:01:56.983Z,16.13
2022-08-20T09:04:31.852Z,16.53
2022-08-20T09:07:02.908Z,17.00
2022-08-20T09:09:35.576Z,17.60
2022-08-20T09:12:07.258Z,17.50
2022-08-20T09:14:36.143Z,17.47
2022-08-20T09:17:05.508Z,16.17
2022-08-20T09:19:35.351Z,15.83
2022-08-20T09:22:09.834Z,20.73
2022-08-20T09:24:38.441Z,17.30
2022-08-20T09:27:07.734Z,17.13
2022-08-20T09:29:36.569Z,16.57
2022-08-20T09:32:06.526Z,17.20
2022-08-20T09:34:39.165Z,20.07
2022-08-20T09:37:08.061Z,19.60
2022-08-20T09:39:36.773Z,17.27
2022-08-20T09:42:10.092Z,16.93
2022-08-20T09:44:38.674Z,17.80
2022-08-20T09:47:07.551Z,19.00
2022-08-20T09:49:37.950Z,21.17
2022-08-20T09:52:09.385Z,18.53
2022-08-20T09:54:46.175Z,17.90
2022-08-20T09:57:16.626Z,17.17
2022-08-20T09:59:46.260Z,17.80
2022-08-20T10:02:14.774Z,16.60
2022-08-20T10:04:44.602Z,16.93
2022-08-20T10:07:13.079Z,22.43
2022-08-20T10:09:45.013Z,19.60
2022-08-20T10:12:13.647Z,18.03
2022-08-20T10:14:42.139Z,20.70
2022-08-20T10:17:10.778Z,17.37
2022-08-20T10:19:39.309Z,16.73
2022-08-20T10:22:09.164Z,16.47
2022-08-20T10:24:37.721Z,15.97
2022-08-20T10:27:07.271Z,15.97
2022-08-20T10:29:36.137Z,15.73
2022-08-20T10:32:16.789Z,15.50
2022-08-20T10:34:46.902Z,16.13
2022-08-20T10:37:18.825Z,17.70
2022-08-20T10:39:47.701Z,20.03
2022-08-20T10:42:16.641Z,24.97
2022-08-20T10:44:45.137Z,20.17
2022-08-20T10:47:19.075Z,19.53
2022-08-20T10:49:47.911Z,18.10
2022-08-20T10:52:18.010Z,18.43
2022-08-20T10:54:46.990Z,19.13
2022-08-20T10:57:18.440Z,18.20
2022-08-20T10:59:48.942Z,21.37
2022-08-20T11:02:18.051Z,22.63
2022-08-20T11:04:46.975Z,23.50
2022-08-20T11:07:19.807Z,22.80
2022-08-20T11:09:50.224Z,21.10
2022-08-20T11:12:20.969Z,20.50
2022-08-20T11:14:51.071Z,19.40
2022-08-20T11:17:25.040Z,19.47
2022-08-20T11:19:53.753Z,20.60
2022-08-20T11:22:23.650Z,18.53
2022-08-20T11:24:52.181Z,17.10
2022-08-20T11:27:35.030Z,17.80
2022-08-20T11:30:04.040Z,19.93
2022-08-20T11:32:32.670Z,20.77
2022-08-20T11:35:06.667Z,20.07
2022-08-20T11:37:48.913Z,20.60
2022-08-20T11:40:17.585Z,20.17
2022-08-20T11:43:11.076Z,18.60
2022-08-20T11:45:37.680Z,16.90
2022-08-20T11:48:06.769Z,16.50
2022-08-20T11:50:35.261Z,16.53
2022-08-20T11:53:05.225Z,14.33
2022-08-20T11:55:35.958Z,11.33
2022-08-20T11:58:04.580Z,11.67
2022-08-20T12:00:34.318Z,10.47
2022-08-20T12:03:05.269Z,9.63
2022-08-20T12:05:34.193Z,10.53
2022-08-20T12:08:04.708Z,6.17
2022-08-20T12:10:33.839Z,6.73
2022-08-20T12:13:02.606Z,7.50
2022-08-20T12:15:31.980Z,8.50
2022-08-20T12:18:01.205Z,8.88
2022-08-20T12:20:29.716Z,9.13
2022-08-20T12:22:58.994Z,9.68
2022-08-20T12:25:28.811Z,10.32
2022-08-20T12:27:57.563Z,10.00
2022-08-20T12:30:26.434Z,9.85
2022-08-20T12:32:54.946Z,10.93
2022-08-20T12:35:23.721Z,10.60
2022-08-20T12:37:52.626Z,11.27
2022-08-20T12:40:31.896Z,10.25
2022-08-20T12:43:03.635Z,11.00
2022-08-20T12:45:33.212Z,10.95
2022-08-20T12:48:04.130Z,10.20
2022-08-20T12:50:33.431Z,10.07
2022-08-20T12:53:03.041Z,10.10
2022-08-20T12:55:32.289Z,12.57
2022-08-20T12:58:03.574Z,11.07
2022-08-20T13:00:35.472Z,10.60
2022-08-20T13:03:06.291Z,12.25
2022-08-20T13:05:36.249Z,11.25
2022-08-20T13:08:08.990Z,10.90
2022-08-20T13:10:44.335Z,11.35
2022-08-20T13:13:15.149Z,12.32
2022-08-20T13:15:48.445Z,11.18
2022-08-20T13:18:16.897Z,11.00
2022-08-20T13:20:45.420Z,12.38
2022-08-20T13:23:13.901Z,11.43
2022-08-20T13:25:42.376Z,11.10
2022-08-20T13:28:10.967Z,10.80
2022-08-20T13:30:41.580Z,11.38
2022-08-20T13:33:10.279Z,10.10
2022-08-20T13:35:38.795Z,10.63
2022-08-20T13:38:07.552Z,10.00
2022-08-20T13:40:36.323Z,10.93
2022-08-20T13:43:07.293Z,11.15
2022-08-20T13:45:36.711Z,10.88
2022-08-20T13:48:09.927Z,10.25
2022-08-20T13:50:44.009Z,11.82
2022-08-20T13:53:16.625Z,11.88
2022-08-20T13:55:46.142Z,11.43
2022-08-20T13:58:14.702Z,12.15
2022-08-20T14:00:43.284Z,12.57
2022-08-20T14:03:13.942Z,12.15
2022-08-20T14:05:48.831Z,12.02
2022-08-20T14:08:19.293Z,11.60
2022-08-20T14:10:51.612Z,10.40
2022-08-20T14:13:22.104Z,10.65
2022-08-20T14:15:51.224Z,10.50
2022-08-20T14:18:21.168Z,11.27
2022-08-20T14:20:49.899Z,10.77
2022-08-20T14:23:18.459Z,11.30
2022-08-20T14:25:49.411Z,11.70
2022-08-20T14:28:19.690Z,11.70
2022-08-20T14:30:52.915Z,12.60
2022-08-20T14:33:24.609Z,11.88
2022-08-20T14:35:54.570Z,11.90
2022-08-20T14:38:23.148Z,10.63
2022-08-20T14:40:51.947Z,10.10
2022-08-20T14:43:20.852Z,9.85
2022-08-20T14:45:49.405Z,9.40
2022-08-20T14:48:17.931Z,10.23
2022-08-20T14:50:47.732Z,10.07
2022-08-20T14:53:16.279Z,9.48
2022-08-20T14:55:44.660Z,10.43
2022-08-20T14:58:15.140Z,9.52
2022-08-20T15:00:44.775Z,8.88
2022-08-20T15:03:14.435Z,9.93
2022-08-20T15:05:43.942Z,9.70
2022-08-20T15:08:13.949Z,9.40
2022-08-20T15:10:43.161Z,9.32
2022-08-20T15:13:12.197Z,9.40
2022-08-20T15:15:40.683Z,9.07
2022-08-20T15:18:09.631Z,9.75
2022-08-20T15:20:38.743Z,9.98
2022-08-20T15:23:07.846Z,9.13
2022-08-20T15:25:38.446Z,9.70
2022-08-20T15:28:08.665Z,9.17
2022-08-20T15:30:38.500Z,9.98
2022-08-20T15:33:07.095Z,9.70
2022-08-20T15:35:35.778Z,8.88
2022-08-20T15:38:04.263Z,9.88
2022-08-20T15:40:34.610Z,9.98
2022-08-20T15:43:05.764Z,10.07
2022-08-20T15:45:36.165Z,10.40
2022-08-20T15:48:12.063Z,10.10
2022-08-20T15:51:03.233Z,9.97
2022-08-20T15:53:38.740Z,9.63
2022-08-20T15:56:16.456Z,9.80
2022-08-20T15:58:58.789Z,9.70
2022-08-20T16:01:36.052Z,11.10
2022-08-20T16:04:26.146Z,9.13
2022-08-20T16:06:58.391Z,11.13
2022-08-20T16:09:47.961Z,9.93
2022-08-20T16:12:20.613Z,9.65
2022-08-20T16:14:55.698Z,10.00
2022-08-20T16:17:31.938Z,10.03
2022-08-20T16:20:07.698Z,10.60
2022-08-20T16:22:39.560Z,9.70
2022-08-20T16:25:08.498Z,9.87
2022-08-20T16:27:46.760Z,10.20
2022-08-20T16:30:22.056Z,9.53
2022-08-20T16:33:01.064Z,9.27
2022-08-20T16:35:32.702Z,9.47
2022-08-20T16:38:13.680Z,9.87
2022-08-20T16:40:53.015Z,9.27
2022-08-20T16:43:27.561Z,9.50
2022-08-20T16:46:02.908Z,9.63
2022-08-20T16:48:37.224Z,9.33
2022-08-20T16:51:10.450Z,10.00
2022-08-20T16:53:39.671Z,9.73
2022-08-20T16:56:08.519Z,9.53
2022-08-20T16:58:36.971Z,9.70
2022-08-20T17:01:10.732Z,9.67
2022-08-20T17:03:41.014Z,11.17
2022-08-20T17:06:28.301Z,10.57
2022-08-20T17:08:57.430Z,10.60
2022-08-20T17:11:32.558Z,10.47
2022-08-20T17:14:08.772Z,10.70
2022-08-20T17:16:41.623Z,11.50
2022-08-20T17:19:18.492Z,10.23
2022-08-20T17:21:50.552Z,10.60
2022-08-20T17:24:24.733Z,10.57
2022-08-20T17:27:00.054Z,10.73
2022-08-20T17:29:30.691Z,10.40
2022-08-20T17:32:02.550Z,10.90
2022-08-20T17:34:34.061Z,10.80
2022-08-20T17:37:08.593Z,10.30
2022-08-20T17:39:46.775Z,10.07
2022-08-20T17:42:19.358Z,11.00
2022-08-20T17:44:52.099Z,10.83
2022-08-20T17:47:32.319Z,10.40
2022-08-20T17:50:05.110Z,9.90
2022-08-20T17:52:40.918Z,10.77
2022-08-20T17:55:11.431Z,10.70
2022-08-20T17:57:44.496Z,10.83
2022-08-20T18:00:16.981Z,10.73
2022-08-20T18:02:46.769Z,10.83
2022-08-20T18:05:20.041Z,11.17
2022-08-20T18:08:08.621Z,11.00
2022-08-20T18:10:43.456Z,10.67
2022-08-20T18:13:16.110Z,10.50
2022-08-20T18:15:50.634Z,11.03
2022-08-20T18:18:30.352Z,11.80
2022-08-20T18:21:23.387Z,12.60
2022-08-20T18:23:58.979Z,12.40
2022-08-20T18:26:33.556Z,12.17
2022-08-20T18:29:11.371Z,14.10
2022-08-20T18:31:46.968Z,12.87
2022-08-20T18:34:20.113Z,12.90
2022-08-20T18:36:56.816Z,13.87
2022-08-20T18:39:29.540Z,13.37
2022-08-20T18:42:01.154Z,12.63
2022-08-20T18:44:37.246Z,13.53
2022-08-20T18:47:07.568Z,13.07
2022-08-20T18:49:39.472Z,13.23
2022-08-20T18:52:14.259Z,12.17
2022-08-20T18:54:50.189Z,12.10
2022-08-20T18:57:21.735Z,12.93
2022-08-20T18:59:55.622Z,12.30
2022-08-20T19:02:27.055Z,11.90
2022-08-20T19:05:02.655Z,11.83
2022-08-20T19:07:48.047Z,11.47
2022-08-20T19:10:44.449Z,11.60
2022-08-20T19:13:52.975Z,14.17
2022-08-20T19:16:34.776Z,12.23
2022-08-20T19:19:03.343Z,12.10
2022-08-20T19:21:36.379Z,13.03
2022-08-20T19:24:08.468Z,12.43
2022-08-20T19:26:43.961Z,11.93
2022-08-20T19:29:17.191Z,12.20
2022-08-20T19:31:46.049Z,10.37
2022-08-20T19:34:22.788Z,11.33
2022-08-20T19:36:58.604Z,11.43
2022-08-20T19:39:29.797Z,11.10
2022-08-20T19:42:03.083Z,11.67
2022-08-20T19:44:36.291Z,12.00
2022-08-20T19:47:05.681Z,11.13
2022-08-20T19:49:42.873Z,11.50
2022-08-20T19:52:31.919Z,11.03
2022-08-20T19:55:03.871Z,12.70
2022-08-20T19:57:32.923Z,12.90
2022-08-20T20:00:07.202Z,12.70
2022-08-20T20:02:36.306Z,12.33
2022-08-20T20:05:07.367Z,12.33
2022-08-20T20:07:41.075Z,12.07
2022-08-20T20:10:11.896Z,11.13
2022-08-20T20:12:41.040Z,13.00
2022-08-20T20:15:10.355Z,11.70
2022-08-20T20:17:40.090Z,11.73
2022-08-20T20:20:26.088Z,12.97
2022-08-20T20:23:00.955Z,12.23
2022-08-20T20:25:43.141Z,12.77
2022-08-20T20:28:15.459Z,12.57
2022-08-20T20:30:44.942Z,12.07
2022-08-20T20:33:17.869Z,11.77
2022-08-20T20:35:47.889Z,12.10
2022-08-20T20:38:29.401Z,11.93
2022-08-20T20:41:01.081Z,11.70
2022-08-20T20:43:32.421Z,11.57
2022-08-20T20:46:06.458Z,11.70
2022-08-20T20:48:45.980Z,11.13
2022-08-20T20:51:24.160Z,11.90
2022-08-20T20:53:55.397Z,11.40
2022-08-20T20:56:44.691Z,10.67
2022-08-20T20:59:14.471Z,10.60
2022-08-20T21:01:48.787Z,9.80
2022-08-20T21:04:20.215Z,9.60
2022-08-20T21:06:48.959Z,9.37
2022-08-20T21:09:19.521Z,9.53
2022-08-20T21:11:49.279Z,8.67
2022-08-20T21:14:18.316Z,7.97
2022-08-20T21:16:47.032Z,7.80
2022-08-20T21:19:16.950Z,7.80
2022-08-20T21:21:45.679Z,7.90
2022-08-20T21:24:14.282Z,8.50
2022-08-20T21:26:44.275Z,8.53
2022-08-20T21:29:17.413Z,8.63
2022-08-20T21:31:47.007Z,9.00
2022-08-20T21:34:17.435Z,8.37
2022-08-20T21:36:46.730Z,8.70
2022-08-20T21:39:15.518Z,8.30
2022-08-20T21:41:46.262Z,8.70
2022-08-20T21:44:21.881Z,8.00
2022-08-20T21:46:51.007Z,7.93
2022-08-20T21:49:20.649Z,7.80
2022-08-20T21:51:50.384Z,8.13
2022-08-20T21:54:19.573Z,7.70
2022-08-20T21:56:53.081Z,7.73
2022-08-20T21:59:23.162Z,8.53
2022-08-20T22:01:52.328Z,7.70
2022-08-20T22:04:21.477Z,7.43
2022-08-20T22:06:51.243Z,8.27
2022-08-20T22:09:20.407Z,8.20
2022-08-20T22:11:54.289Z,8.13
2022-08-20T22:14:24.743Z,7.77
2022-08-20T22:16:53.272Z,8.37
2022-08-20T22:19:22.051Z,8.20
2022-08-20T22:21:51.378Z,7.57
2022-08-20T22:24:19.942Z,8.07
2022-08-20T22:26:49.743Z,8.20
2022-08-20T22:29:18.239Z,7.83
2022-08-20T22:31:46.959Z,7.87
2022-08-20T22:34:17.912Z,7.83
2022-08-20T22:36:46.568Z,8.30
2022-08-20T22:39:15.461Z,8.70
2022-08-20T22:41:43.917Z,8.63
2022-08-20T22:44:13.711Z,9.17
2022-08-20T22:46:48.014Z,9.23
2022-08-20T22:49:22.682Z,10.17
2022-08-20T22:51:51.197Z,8.93
2022-08-20T22:54:24.116Z,9.80
2022-08-20T22:56:54.120Z,9.30
2022-08-20T22:59:24.358Z,9.27
2022-08-20T23:01:53.341Z,8.90
2022-08-20T23:04:27.087Z,9.33
2022-08-20T23:06:57.581Z,9.37
2022-08-20T23:09:27.528Z,8.90
2022-08-20T23:11:56.316Z,9.10
2022-08-20T23:14:27.357Z,9.47
2022-08-20T23:17:00.819Z,8.90
2022-08-20T23:19:29.470Z,9.67
2022-08-20T23:21:58.058Z,9.57
2022-08-20T23:24:26.649Z,9.80
2022-08-20T23:26:55.270Z,9.30
2022-08-20T23:29:26.220Z,10.87
2022-08-20T23:31:55.672Z,11.43
2022-08-20T23:34:24.152Z,11.13
2022-08-20T23:36:53.474Z,10.03
2022-08-20T23:39:22.344Z,11.43
2022-08-20T23:41:51.141Z,11.50
2022-08-20T23:44:25.805Z,10.50
2022-08-20T23:46:59.081Z,11.27
2022-08-20T23:49:27.670Z,11.43
2022-08-20T23:51:57.786Z,10.90
2022-08-20T23:54:26.338Z,11.00
2022-08-20T23:56:55.543Z,11.13
2022-08-20T23:59:26.109Z,11.87
